sensor_id;sensor_type;location;lat;lon;timestamp;P1;durP1;ratioP1;P2;durP2;ratioP2
13173;SDS011;6652;48.802;9.190;2023-05-02T00:00:22;10.90;;;7.03;;
13173;SDS011;6652;48.802;9.190;2023-05-02T00:02:49;10.23;;;7.25;;
13173;SDS011;6652;48.802;9.190;2023-05-02T00:05:16;9.02;;;6.57;;
13173;SDS011;6652;48.802;9.190;2023-05-02T00:07:43;8.52;;;6.72;;
13173;SDS011;6652;48.802;9.190;2023-05-02T00:10:10;8.80;;;6.70;;
13173;SDS011;6652;48.802;9.190;2023-05-02T00:12:36;10.65;;;7.18;;
13173;SDS011;6652;48.802;9.190;2023-05-02T00:15:05;8.43;;;6.63;;
13173;SDS011;6652;48.802;9.190;2023-05-02T00:17:33;11.77;;;7.70;;
13173;SDS011;6652;48.802;9.190;2023-05-02T00:20:00;9.65;;;7.60;;
13173;SDS011;6652;48.802;9.190;2023-05-02T00:22:28;11.98;;;8.27;;
13173;SDS011;6652;48.802;9.190;2023-05-02T00:24:55;11.63;;;8.00;;
13173;SDS011;6652;48.802;9.190;2023-05-02T00:27:22;15.25;;;8.55;;
13173;SDS011;6652;48.802;9.190;2023-05-02T00:29:49;14.07;;;9.65;;
13173;SDS011;6652;48.802;9.190;2023-05-02T00:32:18;20.63;;;12.80;;
13173;SDS011;6652;48.802;9.190;2023-05-02T00:34:45;15.32;;;11.15;;
13173;SDS011;6652;48.802;9.190;2023-05-02T00:37:12;15.60;;;10.05;;
13173;SDS011;6652;48.802;9.190;2023-05-02T00:39:38;12.73;;;9.70;;
13173;SDS011;6652;48.802;9.190;2023-05-02T00:42:05;12.52;;;9.27;;
13173;SDS011;6652;48.802;9.190;2023-05-02T00:44:32;10.65;;;7.82;;
13173;SDS011;6652;48.802;9.190;2023-05-02T00:46:59;9.93;;;7.55;;
13173;SDS011;6652;48.802;9.190;2023-05-02T00:49:28;10.25;;;8.05;;
13173;SDS011;6652;48.802;9.190;2023-05-02T00:51:55;11.27;;;7.60;;
13173;SDS011;6652;48.802;9.190;2023-05-02T00:54:23;9.70;;;7.10;;
13173;SDS011;6652;48.802;9.190;2023-05-02T00:56:50;9.43;;;7.22;;
13173;SDS011;6652;48.802;9.190;2023-05-02T00:59:17;8.43;;;6.72;;
13173;SDS011;6652;48.802;9.190;2023-05-02T01:01:47;9.80;;;7.53;;
13173;SDS011;6652;48.802;9.190;2023-05-02T01:04:22;11.90;;;7.65;;
13173;SDS011;6652;48.802;9.190;2023-05-02T01:07:01;9.70;;;7.78;;
13173;SDS011;6652;48.802;9.190;2023-05-02T01:09:41;10.55;;;7.72;;
13173;SDS011;6652;48.802;9.190;2023-05-02T01:12:20;9.85;;;7.55;;
13173;SDS011;6652;48.802;9.190;2023-05-02T01:14:53;8.77;;;7.30;;
13173;SDS011;6652;48.802;9.190;2023-05-02T01:17:23;13.40;;;7.57;;
13173;SDS011;6652;48.802;9.190;2023-05-02T01:19:55;11.60;;;7.13;;
13173;SDS011;6652;48.802;9.190;2023-05-02T01:22:23;8.52;;;6.68;;
13173;SDS011;6652;48.802;9.190;2023-05-02T01:24:53;9.15;;;7.20;;
13173;SDS011;6652;48.802;9.190;2023-05-02T01:27:30;10.10;;;6.68;;
13173;SDS011;6652;48.802;9.190;2023-05-02T01:30:07;9.07;;;7.63;;
13173;SDS011;6652;48.802;9.190;2023-05-02T01:32:35;8.70;;;7.07;;
13173;SDS011;6652;48.802;9.190;2023-05-02T01:35:04;9.30;;;7.53;;
13173;SDS011;6652;48.802;9.190;2023-05-02T01:37:33;14.85;;;6.97;;
13173;SDS011;6652;48.802;9.190;2023-05-02T01:40:02;9.50;;;6.57;;
13173;SDS011;6652;48.802;9.190;2023-05-02T01:42:30;10.48;;;7.57;;
13173;SDS011;6652;48.802;9.190;2023-05-02T01:44:58;12.98;;;8.02;;
13173;SDS011;6652;48.802;9.190;2023-05-02T01:47:29;9.00;;;7.70;;
13173;SDS011;6652;48.802;9.190;2023-05-02T01:50:00;10.43;;;7.75;;
13173;SDS011;6652;48.802;9.190;2023-05-02T01:52:28;11.30;;;7.95;;
13173;SDS011;6652;48.802;9.190;2023-05-02T01:54:55;12.23;;;8.02;;
13173;SDS011;6652;48.802;9.190;2023-05-02T01:57:24;10.07;;;7.82;;
13173;SDS011;6652;48.802;9.190;2023-05-02T01:59:51;8.10;;;7.00;;
13173;SDS011;6652;48.802;9.190;2023-05-02T02:02:20;11.52;;;7.93;;
13173;SDS011;6652;48.802;9.190;2023-05-02T02:04:49;17.75;;;8.52;;
13173;SDS011;6652;48.802;9.190;2023-05-02T02:07:19;14.98;;;8.57;;
13173;SDS011;6652;48.802;9.190;2023-05-02T02:09:46;10.95;;;8.35;;
13173;SDS011;6652;48.802;9.190;2023-05-02T02:12:14;12.55;;;9.00;;
13173;SDS011;6652;48.802;9.190;2023-05-02T02:14:47;16.15;;;8.85;;
13173;SDS011;6652;48.802;9.190;2023-05-02T02:27:38;11.38;;;9.10;;
13173;SDS011;6652;48.802;9.190;2023-05-02T02:30:06;13.40;;;9.98;;
13173;SDS011;6652;48.802;9.190;2023-05-02T02:32:34;13.80;;;8.77;;
13173;SDS011;6652;48.802;9.190;2023-05-02T02:35:01;12.35;;;8.65;;
13173;SDS011;6652;48.802;9.190;2023-05-02T02:37:28;14.38;;;9.13;;
13173;SDS011;6652;48.802;9.190;2023-05-02T02:39:59;15.07;;;9.15;;
13173;SDS011;6652;48.802;9.190;2023-05-02T02:42:31;13.50;;;9.17;;
13173;SDS011;6652;48.802;9.190;2023-05-02T02:45:10;12.18;;;9.57;;
13173;SDS011;6652;48.802;9.190;2023-05-02T02:47:46;11.82;;;9.50;;
13173;SDS011;6652;48.802;9.190;2023-05-02T02:50:18;13.05;;;9.65;;
13173;SDS011;6652;48.802;9.190;2023-05-02T02:53:02;14.82;;;9.20;;
13173;SDS011;6652;48.802;9.190;2023-05-02T02:55:34;15.98;;;9.60;;
13173;SDS011;6652;48.802;9.190;2023-05-02T02:58:09;15.50;;;9.57;;
13173;SDS011;6652;48.802;9.190;2023-05-02T03:00:44;13.02;;;10.25;;
13173;SDS011;6652;48.802;9.190;2023-05-02T03:03:12;15.68;;;10.07;;
13173;SDS011;6652;48.802;9.190;2023-05-02T03:05:40;13.52;;;9.25;;
13173;SDS011;6652;48.802;9.190;2023-05-02T03:08:08;15.57;;;8.85;;
13173;SDS011;6652;48.802;9.190;2023-05-02T03:10:35;12.02;;;8.75;;
13173;SDS011;6652;48.802;9.190;2023-05-02T03:13:02;15.85;;;9.57;;
13173;SDS011;6652;48.802;9.190;2023-05-02T03:15:39;15.02;;;9.07;;
13173;SDS011;6652;48.802;9.190;2023-05-02T03:18:31;12.25;;;8.50;;
13173;SDS011;6652;48.802;9.190;2023-05-02T03:20:58;14.13;;;9.15;;
13173;SDS011;6652;48.802;9.190;2023-05-02T03:23:26;14.23;;;8.25;;
13173;SDS011;6652;48.802;9.190;2023-05-02T03:25:52;10.32;;;8.40;;
13173;SDS011;6652;48.802;9.190;2023-05-02T03:28:19;11.32;;;8.63;;
13173;SDS011;6652;48.802;9.190;2023-05-02T03:30:46;11.07;;;9.00;;
13173;SDS011;6652;48.802;9.190;2023-05-02T03:33:14;12.55;;;9.05;;
13173;SDS011;6652;48.802;9.190;2023-05-02T03:35:41;15.20;;;8.38;;
13173;SDS011;6652;48.802;9.190;2023-05-02T03:38:08;10.77;;;8.73;;
13173;SDS011;6652;48.802;9.190;2023-05-02T03:40:34;12.68;;;9.15;;
13173;SDS011;6652;48.802;9.190;2023-05-02T03:43:01;15.80;;;8.48;;
13173;SDS011;6652;48.802;9.190;2023-05-02T03:45:28;11.27;;;8.52;;
13173;SDS011;6652;48.802;9.190;2023-05-02T03:47:55;14.80;;;9.93;;
13173;SDS011;6652;48.802;9.190;2023-05-02T03:50:23;11.13;;;8.27;;
13173;SDS011;6652;48.802;9.190;2023-05-02T03:52:50;12.38;;;8.30;;
13173;SDS011;6652;48.802;9.190;2023-05-02T03:55:17;13.38;;;8.45;;
13173;SDS011;6652;48.802;9.190;2023-05-02T03:57:46;11.77;;;8.10;;
13173;SDS011;6652;48.802;9.190;2023-05-02T04:00:13;13.90;;;8.70;;
13173;SDS011;6652;48.802;9.190;2023-05-02T04:02:41;12.25;;;8.23;;
13173;SDS011;6652;48.802;9.190;2023-05-02T04:05:07;12.40;;;9.45;;
13173;SDS011;6652;48.802;9.190;2023-05-02T04:07:36;15.95;;;9.10;;
13173;SDS011;6652;48.802;9.190;2023-05-02T04:10:03;15.85;;;8.88;;
13173;SDS011;6652;48.802;9.190;2023-05-02T04:12:30;10.82;;;8.50;;
13173;SDS011;6652;48.802;9.190;2023-05-02T04:14:57;11.70;;;9.05;;
13173;SDS011;6652;48.802;9.190;2023-05-02T04:17:24;15.23;;;9.70;;
13173;SDS011;6652;48.802;9.190;2023-05-02T04:19:51;14.20;;;8.25;;
13173;SDS011;6652;48.802;9.190;2023-05-02T04:22:18;14.10;;;9.00;;
13173;SDS011;6652;48.802;9.190;2023-05-02T04:24:46;10.77;;;9.10;;
13173;SDS011;6652;48.802;9.190;2023-05-02T04:27:13;12.75;;;8.90;;
13173;SDS011;6652;48.802;9.190;2023-05-02T04:29:39;18.92;;;9.43;;
13173;SDS011;6652;48.802;9.190;2023-05-02T04:32:06;12.88;;;9.30;;
13173;SDS011;6652;48.802;9.190;2023-05-02T04:34:33;11.32;;;9.63;;
13173;SDS011;6652;48.802;9.190;2023-05-02T04:37:00;13.60;;;9.25;;
13173;SDS011;6652;48.802;9.190;2023-05-02T04:39:27;14.00;;;9.70;;
13173;SDS011;6652;48.802;9.190;2023-05-02T04:41:55;16.80;;;9.45;;
13173;SDS011;6652;48.802;9.190;2023-05-02T04:44:21;15.00;;;9.07;;
13173;SDS011;6652;48.802;9.190;2023-05-02T04:46:48;14.40;;;9.80;;
13173;SDS011;6652;48.802;9.190;2023-05-02T04:49:15;17.42;;;10.15;;
13173;SDS011;6652;48.802;9.190;2023-05-02T04:51:42;16.92;;;9.85;;
13173;SDS011;6652;48.802;9.190;2023-05-02T04:54:09;20.15;;;10.07;;
13173;SDS011;6652;48.802;9.190;2023-05-02T04:56:37;20.58;;;10.90;;
13173;SDS011;6652;48.802;9.190;2023-05-02T04:59:05;20.92;;;11.00;;
13173;SDS011;6652;48.802;9.190;2023-05-02T05:01:32;19.65;;;11.48;;
13173;SDS011;6652;48.802;9.190;2023-05-02T05:03:59;17.88;;;10.43;;
13173;SDS011;6652;48.802;9.190;2023-05-02T05:06:26;16.27;;;10.85;;
13173;SDS011;6652;48.802;9.190;2023-05-02T05:08:52;22.75;;;11.77;;
13173;SDS011;6652;48.802;9.190;2023-05-02T05:11:19;21.20;;;12.25;;
13173;SDS011;6652;48.802;9.190;2023-05-02T05:13:47;19.13;;;11.57;;
13173;SDS011;6652;48.802;9.190;2023-05-02T05:16:15;20.60;;;10.35;;
13173;SDS011;6652;48.802;9.190;2023-05-02T05:18:42;21.85;;;10.35;;
13173;SDS011;6652;48.802;9.190;2023-05-02T05:21:09;20.50;;;10.45;;
13173;SDS011;6652;48.802;9.190;2023-05-02T05:23:36;18.17;;;10.30;;
13173;SDS011;6652;48.802;9.190;2023-05-02T05:26:10;18.83;;;9.32;;
13173;SDS011;6652;48.802;9.190;2023-05-02T05:28:38;16.45;;;9.95;;
13173;SDS011;6652;48.802;9.190;2023-05-02T05:31:05;17.48;;;9.73;;
13173;SDS011;6652;48.802;9.190;2023-05-02T05:33:33;19.38;;;9.95;;
13173;SDS011;6652;48.802;9.190;2023-05-02T05:36:04;16.70;;;9.77;;
13173;SDS011;6652;48.802;9.190;2023-05-02T05:38:31;13.95;;;8.98;;
13173;SDS011;6652;48.802;9.190;2023-05-02T05:40:59;14.73;;;9.52;;
13173;SDS011;6652;48.802;9.190;2023-05-02T05:43:26;12.82;;;9.05;;
13173;SDS011;6652;48.802;9.190;2023-05-02T05:45:53;17.15;;;9.93;;
13173;SDS011;6652;48.802;9.190;2023-05-02T05:48:21;15.77;;;9.52;;
13173;SDS011;6652;48.802;9.190;2023-05-02T05:50:49;14.38;;;9.90;;
13173;SDS011;6652;48.802;9.190;2023-05-02T05:53:17;14.32;;;9.43;;
13173;SDS011;6652;48.802;9.190;2023-05-02T05:55:44;13.10;;;9.15;;
13173;SDS011;6652;48.802;9.190;2023-05-02T05:58:11;18.38;;;9.82;;
13173;SDS011;6652;48.802;9.190;2023-05-02T06:00:38;19.42;;;9.80;;
13173;SDS011;6652;48.802;9.190;2023-05-02T06:03:05;18.58;;;10.88;;
13173;SDS011;6652;48.802;9.190;2023-05-02T06:05:32;16.83;;;9.55;;
13173;SDS011;6652;48.802;9.190;2023-05-02T06:08:00;13.65;;;9.00;;
13173;SDS011;6652;48.802;9.190;2023-05-02T06:10:27;12.75;;;9.00;;
13173;SDS011;6652;48.802;9.190;2023-05-02T06:12:55;13.35;;;9.50;;
13173;SDS011;6652;48.802;9.190;2023-05-02T06:15:22;10.65;;;9.05;;
13173;SDS011;6652;48.802;9.190;2023-05-02T06:17:50;12.80;;;9.05;;
13173;SDS011;6652;48.802;9.190;2023-05-02T06:20:17;12.90;;;9.55;;
13173;SDS011;6652;48.802;9.190;2023-05-02T06:22:44;14.95;;;9.68;;
13173;SDS011;6652;48.802;9.190;2023-05-02T06:25:12;11.45;;;9.65;;
13173;SDS011;6652;48.802;9.190;2023-05-02T06:27:38;14.73;;;10.20;;
13173;SDS011;6652;48.802;9.190;2023-05-02T06:30:06;16.40;;;11.13;;
13173;SDS011;6652;48.802;9.190;2023-05-02T06:32:33;12.88;;;10.00;;
13173;SDS011;6652;48.802;9.190;2023-05-02T06:35:00;11.95;;;9.70;;
13173;SDS011;6652;48.802;9.190;2023-05-02T06:37:27;14.82;;;10.52;;
13173;SDS011;6652;48.802;9.190;2023-05-02T06:39:58;15.63;;;10.10;;
13173;SDS011;6652;48.802;9.190;2023-05-02T06:42:26;14.43;;;10.55;;
13173;SDS011;6652;48.802;9.190;2023-05-02T06:44:53;16.13;;;10.75;;
13173;SDS011;6652;48.802;9.190;2023-05-02T06:47:20;14.57;;;10.73;;
13173;SDS011;6652;48.802;9.190;2023-05-02T06:49:48;14.07;;;10.70;;
13173;SDS011;6652;48.802;9.190;2023-05-02T06:52:15;15.63;;;11.32;;
13173;SDS011;6652;48.802;9.190;2023-05-02T06:54:42;15.60;;;11.63;;
13173;SDS011;6652;48.802;9.190;2023-05-02T06:57:09;16.27;;;12.57;;
13173;SDS011;6652;48.802;9.190;2023-05-02T06:59:37;18.63;;;14.05;;
13173;SDS011;6652;48.802;9.190;2023-05-02T07:02:04;38.17;;;14.85;;
13173;SDS011;6652;48.802;9.190;2023-05-02T07:04:31;23.80;;;14.95;;
13173;SDS011;6652;48.802;9.190;2023-05-02T07:06:58;28.90;;;16.05;;
13173;SDS011;6652;48.802;9.190;2023-05-02T07:09:25;22.48;;;14.75;;
13173;SDS011;6652;48.802;9.190;2023-05-02T07:11:51;20.23;;;15.23;;
13173;SDS011;6652;48.802;9.190;2023-05-02T07:14:18;26.30;;;16.33;;
13173;SDS011;6652;48.802;9.190;2023-05-02T07:16:47;25.35;;;16.13;;
13173;SDS011;6652;48.802;9.190;2023-05-02T07:19:13;20.55;;;15.80;;
13173;SDS011;6652;48.802;9.190;2023-05-02T07:21:40;31.38;;;17.05;;
13173;SDS011;6652;48.802;9.190;2023-05-02T07:24:07;34.35;;;17.48;;
13173;SDS011;6652;48.802;9.190;2023-05-02T07:26:34;39.70;;;19.25;;
13173;SDS011;6652;48.802;9.190;2023-05-02T07:29:01;25.30;;;18.15;;
13173;SDS011;6652;48.802;9.190;2023-05-02T07:31:30;35.40;;;19.02;;
13173;SDS011;6652;48.802;9.190;2023-05-02T07:33:58;32.10;;;18.27;;
13173;SDS011;6652;48.802;9.190;2023-05-02T07:36:25;24.90;;;18.70;;
13173;SDS011;6652;48.802;9.190;2023-05-02T07:38:52;30.77;;;17.75;;
13173;SDS011;6652;48.802;9.190;2023-05-02T07:41:19;31.48;;;19.75;;
13173;SDS011;6652;48.802;9.190;2023-05-02T07:43:46;30.95;;;19.08;;
13173;SDS011;6652;48.802;9.190;2023-05-02T07:46:13;29.48;;;19.17;;
13173;SDS011;6652;48.802;9.190;2023-05-02T07:48:40;25.35;;;19.42;;
13173;SDS011;6652;48.802;9.190;2023-05-02T07:51:09;26.35;;;18.58;;
13173;SDS011;6652;48.802;9.190;2023-05-02T07:53:36;47.60;;;20.15;;
13173;SDS011;6652;48.802;9.190;2023-05-02T07:56:03;28.63;;;18.15;;
13173;SDS011;6652;48.802;9.190;2023-05-02T07:58:30;69.93;;;21.55;;
13173;SDS011;6652;48.802;9.190;2023-05-02T08:00:57;39.72;;;19.40;;
13173;SDS011;6652;48.802;9.190;2023-05-02T08:03:24;37.80;;;19.77;;
13173;SDS011;6652;48.802;9.190;2023-05-02T08:05:52;32.65;;;20.35;;
13173;SDS011;6652;48.802;9.190;2023-05-02T08:08:20;69.80;;;23.73;;
13173;SDS011;6652;48.802;9.190;2023-05-02T08:10:47;51.97;;;20.90;;
13173;SDS011;6652;48.802;9.190;2023-05-02T08:13:15;42.58;;;22.88;;
13173;SDS011;6652;48.802;9.190;2023-05-02T08:15:42;52.40;;;22.42;;
13173;SDS011;6652;48.802;9.190;2023-05-02T08:18:09;39.22;;;20.42;;
13173;SDS011;6652;48.802;9.190;2023-05-02T08:20:35;34.30;;;22.67;;
13173;SDS011;6652;48.802;9.190;2023-05-02T08:23:02;32.92;;;22.58;;
13173;SDS011;6652;48.802;9.190;2023-05-02T08:25:30;35.00;;;22.50;;
13173;SDS011;6652;48.802;9.190;2023-05-02T08:27:57;30.65;;;21.75;;
13173;SDS011;6652;48.802;9.190;2023-05-02T08:30:24;28.25;;;22.00;;
13173;SDS011;6652;48.802;9.190;2023-05-02T08:32:51;29.35;;;21.85;;
13173;SDS011;6652;48.802;9.190;2023-05-02T08:35:17;32.58;;;22.52;;
13173;SDS011;6652;48.802;9.190;2023-05-02T08:37:44;30.95;;;21.45;;
13173;SDS011;6652;48.802;9.190;2023-05-02T08:40:11;35.53;;;21.83;;
13173;SDS011;6652;48.802;9.190;2023-05-02T08:42:41;29.73;;;22.20;;
13173;SDS011;6652;48.802;9.190;2023-05-02T08:45:10;29.52;;;22.17;;
13173;SDS011;6652;48.802;9.190;2023-05-02T08:47:39;31.80;;;21.60;;
13173;SDS011;6652;48.802;9.190;2023-05-02T08:50:07;34.17;;;22.17;;
13173;SDS011;6652;48.802;9.190;2023-05-02T08:52:35;30.83;;;21.20;;
13173;SDS011;6652;48.802;9.190;2023-05-02T08:55:02;39.53;;;22.48;;
13173;SDS011;6652;48.802;9.190;2023-05-02T08:57:30;29.65;;;22.05;;
13173;SDS011;6652;48.802;9.190;2023-05-02T08:59:58;37.60;;;20.73;;
13173;SDS011;6652;48.802;9.190;2023-05-02T09:02:31;34.85;;;21.42;;
13173;SDS011;6652;48.802;9.190;2023-05-02T09:05:10;48.17;;;21.48;;
13173;SDS011;6652;48.802;9.190;2023-05-02T09:07:44;61.78;;;21.20;;
13173;SDS011;6652;48.802;9.190;2023-05-02T09:10:12;40.20;;;20.88;;
13173;SDS011;6652;48.802;9.190;2023-05-02T09:12:39;44.88;;;22.38;;
13173;SDS011;6652;48.802;9.190;2023-05-02T09:15:10;41.22;;;23.00;;
13173;SDS011;6652;48.802;9.190;2023-05-02T09:17:40;28.10;;;19.95;;
13173;SDS011;6652;48.802;9.190;2023-05-02T09:20:08;29.63;;;21.00;;
13173;SDS011;6652;48.802;9.190;2023-05-02T09:22:36;32.88;;;20.40;;
13173;SDS011;6652;48.802;9.190;2023-05-02T09:25:04;42.42;;;21.88;;
13173;SDS011;6652;48.802;9.190;2023-05-02T09:30:18;36.65;;;19.88;;
13173;SDS011;6652;48.802;9.190;2023-05-02T09:32:47;42.13;;;20.42;;
13173;SDS011;6652;48.802;9.190;2023-05-02T09:35:16;41.83;;;18.73;;
13173;SDS011;6652;48.802;9.190;2023-05-02T09:37:48;29.65;;;20.40;;
13173;SDS011;6652;48.802;9.190;2023-05-02T09:40:18;37.45;;;20.05;;
13173;SDS011;6652;48.802;9.190;2023-05-02T09:42:45;53.40;;;20.30;;
13173;SDS011;6652;48.802;9.190;2023-05-02T09:45:21;36.00;;;19.02;;
13173;SDS011;6652;48.802;9.190;2023-05-02T09:47:48;24.40;;;18.35;;
13173;SDS011;6652;48.802;9.190;2023-05-02T09:53:01;24.75;;;18.60;;
13173;SDS011;6652;48.802;9.190;2023-05-02T09:55:31;23.27;;;20.02;;
13173;SDS011;6652;48.802;9.190;2023-05-02T09:57:58;26.25;;;19.15;;
13173;SDS011;6652;48.802;9.190;2023-05-02T10:00:40;25.85;;;19.98;;
13173;SDS011;6652;48.802;9.190;2023-05-02T10:03:08;24.20;;;18.77;;
13173;SDS011;6652;48.802;9.190;2023-05-02T10:05:36;26.70;;;19.55;;
13173;SDS011;6652;48.802;9.190;2023-05-02T10:08:04;22.33;;;18.88;;
13173;SDS011;6652;48.802;9.190;2023-05-02T10:10:32;23.80;;;18.85;;
13173;SDS011;6652;48.802;9.190;2023-05-02T10:13:02;26.88;;;19.58;;
13173;SDS011;6652;48.802;9.190;2023-05-02T10:15:30;21.73;;;18.38;;
13173;SDS011;6652;48.802;9.190;2023-05-02T10:17:59;24.25;;;18.40;;
13173;SDS011;6652;48.802;9.190;2023-05-02T10:20:30;23.13;;;18.17;;
13173;SDS011;6652;48.802;9.190;2023-05-02T10:23:01;21.30;;;18.17;;
13173;SDS011;6652;48.802;9.190;2023-05-02T10:25:28;26.05;;;18.30;;
13173;SDS011;6652;48.802;9.190;2023-05-02T10:27:55;23.73;;;18.08;;
13173;SDS011;6652;48.802;9.190;2023-05-02T10:30:23;20.27;;;16.70;;
13173;SDS011;6652;48.802;9.190;2023-05-02T10:32:51;22.80;;;18.42;;
13173;SDS011;6652;48.802;9.190;2023-05-02T10:35:20;24.27;;;18.45;;
13173;SDS011;6652;48.802;9.190;2023-05-02T10:37:49;19.98;;;16.88;;
13173;SDS011;6652;48.802;9.190;2023-05-02T10:40:16;21.38;;;16.73;;
13173;SDS011;6652;48.802;9.190;2023-05-02T10:42:45;20.73;;;17.00;;
13173;SDS011;6652;48.802;9.190;2023-05-02T10:45:28;20.95;;;15.35;;
13173;SDS011;6652;48.802;9.190;2023-05-02T10:48:15;20.67;;;16.60;;
13173;SDS011;6652;48.802;9.190;2023-05-02T10:50:45;24.15;;;16.83;;
13173;SDS011;6652;48.802;9.190;2023-05-02T10:53:25;20.65;;;16.95;;
13173;SDS011;6652;48.802;9.190;2023-05-02T10:58:46;22.03;;;16.13;;
13173;SDS011;6652;48.802;9.190;2023-05-02T11:01:35;19.10;;;15.73;;
13173;SDS011;6652;48.802;9.190;2023-05-02T11:04:06;22.40;;;15.75;;
13173;SDS011;6652;48.802;9.190;2023-05-02T11:09:43;24.35;;;16.77;;
13173;SDS011;6652;48.802;9.190;2023-05-02T11:12:09;22.42;;;15.88;;
13173;SDS011;6652;48.802;9.190;2023-05-02T11:14:43;23.52;;;15.70;;
13173;SDS011;6652;48.802;9.190;2023-05-02T11:17:12;19.83;;;15.90;;
13173;SDS011;6652;48.802;9.190;2023-05-02T11:22:53;23.23;;;14.95;;
13173;SDS011;6652;48.802;9.190;2023-05-02T11:25:30;21.42;;;15.90;;
13173;SDS011;6652;48.802;9.190;2023-05-02T11:28:03;22.73;;;16.55;;
13173;SDS011;6652;48.802;9.190;2023-05-02T11:30:38;24.58;;;15.50;;
13173;SDS011;6652;48.802;9.190;2023-05-02T11:35:53;41.83;;;17.40;;
13173;SDS011;6652;48.802;9.190;2023-05-02T11:38:23;18.35;;;14.45;;
13173;SDS011;6652;48.802;9.190;2023-05-02T11:40:55;19.83;;;15.95;;
13173;SDS011;6652;48.802;9.190;2023-05-02T11:43:23;21.75;;;15.10;;
13173;SDS011;6652;48.802;9.190;2023-05-02T11:45:52;22.42;;;15.60;;
13173;SDS011;6652;48.802;9.190;2023-05-02T11:48:21;21.63;;;14.55;;
13173;SDS011;6652;48.802;9.190;2023-05-02T11:50:51;21.52;;;15.45;;
13173;SDS011;6652;48.802;9.190;2023-05-02T11:53:20;20.13;;;15.15;;
13173;SDS011;6652;48.802;9.190;2023-05-02T11:55:49;22.45;;;16.58;;
13173;SDS011;6652;48.802;9.190;2023-05-02T11:58:17;21.60;;;16.58;;
13173;SDS011;6652;48.802;9.190;2023-05-02T12:00:45;22.00;;;17.33;;
13173;SDS011;6652;48.802;9.190;2023-05-02T12:03:23;24.05;;;17.15;;
13173;SDS011;6652;48.802;9.190;2023-05-02T12:05:52;22.98;;;18.45;;
13173;SDS011;6652;48.802;9.190;2023-05-02T12:08:19;23.42;;;18.55;;
13173;SDS011;6652;48.802;9.190;2023-05-02T12:10:49;32.53;;;17.15;;
13173;SDS011;6652;48.802;9.190;2023-05-02T12:13:18;25.08;;;18.15;;
13173;SDS011;6652;48.802;9.190;2023-05-02T12:15:46;25.60;;;19.38;;
13173;SDS011;6652;48.802;9.190;2023-05-02T12:18:14;25.60;;;18.45;;
13173;SDS011;6652;48.802;9.190;2023-05-02T12:20:42;26.63;;;19.02;;
13173;SDS011;6652;48.802;9.190;2023-05-02T12:23:10;28.27;;;18.15;;
13173;SDS011;6652;48.802;9.190;2023-05-02T12:25:38;26.73;;;17.65;;
13173;SDS011;6652;48.802;9.190;2023-05-02T12:28:07;22.00;;;15.77;;
13173;SDS011;6652;48.802;9.190;2023-05-02T12:30:35;32.25;;;18.17;;
13173;SDS011;6652;48.802;9.190;2023-05-02T12:33:03;29.83;;;18.05;;
13173;SDS011;6652;48.802;9.190;2023-05-02T12:35:31;29.70;;;20.70;;
13173;SDS011;6652;48.802;9.190;2023-05-02T12:38:09;27.52;;;19.30;;
13173;SDS011;6652;48.802;9.190;2023-05-02T12:40:37;25.75;;;18.38;;
13173;SDS011;6652;48.802;9.190;2023-05-02T12:43:12;30.58;;;22.13;;
13173;SDS011;6652;48.802;9.190;2023-05-02T12:45:39;31.77;;;21.98;;
13173;SDS011;6652;48.802;9.190;2023-05-02T12:48:25;34.15;;;23.63;;
13173;SDS011;6652;48.802;9.190;2023-05-02T12:50:53;29.52;;;22.08;;
13173;SDS011;6652;48.802;9.190;2023-05-02T12:53:39;27.00;;;20.90;;
13173;SDS011;6652;48.802;9.190;2023-05-02T12:56:07;37.88;;;21.23;;
13173;SDS011;6652;48.802;9.190;2023-05-02T12:58:43;25.25;;;18.83;;
13173;SDS011;6652;48.802;9.190;2023-05-02T13:01:11;22.23;;;17.45;;
13173;SDS011;6652;48.802;9.190;2023-05-02T13:03:39;23.88;;;18.35;;
13173;SDS011;6652;48.802;9.190;2023-05-02T13:06:06;21.50;;;17.33;;
13173;SDS011;6652;48.802;9.190;2023-05-02T13:08:33;24.48;;;17.67;;
13173;SDS011;6652;48.802;9.190;2023-05-02T13:11:01;22.17;;;18.52;;
13173;SDS011;6652;48.802;9.190;2023-05-02T13:13:28;23.15;;;17.85;;
13173;SDS011;6652;48.802;9.190;2023-05-02T13:15:57;24.30;;;18.50;;
13173;SDS011;6652;48.802;9.190;2023-05-02T13:18:24;21.55;;;17.75;;
13173;SDS011;6652;48.802;9.190;2023-05-02T13:20:52;23.35;;;18.80;;
13173;SDS011;6652;48.802;9.190;2023-05-02T13:23:19;26.77;;;17.40;;
13173;SDS011;6652;48.802;9.190;2023-05-02T13:25:45;22.20;;;17.15;;
13173;SDS011;6652;48.802;9.190;2023-05-02T13:28:12;20.42;;;15.60;;
13173;SDS011;6652;48.802;9.190;2023-05-02T13:30:39;23.13;;;17.25;;
13173;SDS011;6652;48.802;9.190;2023-05-02T13:33:07;22.27;;;16.30;;
13173;SDS011;6652;48.802;9.190;2023-05-02T13:35:34;21.17;;;16.20;;
13173;SDS011;6652;48.802;9.190;2023-05-02T13:38:01;24.70;;;17.98;;
13173;SDS011;6652;48.802;9.190;2023-05-02T13:40:28;20.42;;;16.30;;
13173;SDS011;6652;48.802;9.190;2023-05-02T13:42:55;21.88;;;16.63;;
13173;SDS011;6652;48.802;9.190;2023-05-02T13:45:22;22.90;;;15.80;;
13173;SDS011;6652;48.802;9.190;2023-05-02T13:47:48;17.92;;;13.57;;
13173;SDS011;6652;48.802;9.190;2023-05-02T13:50:17;18.67;;;13.00;;
13173;SDS011;6652;48.802;9.190;2023-05-02T13:52:43;20.70;;;14.32;;
13173;SDS011;6652;48.802;9.190;2023-05-02T13:55:10;22.80;;;15.75;;
13173;SDS011;6652;48.802;9.190;2023-05-02T13:57:37;22.42;;;15.73;;
13173;SDS011;6652;48.802;9.190;2023-05-02T14:00:04;23.08;;;15.43;;
13173;SDS011;6652;48.802;9.190;2023-05-02T14:02:33;20.52;;;15.05;;
13173;SDS011;6652;48.802;9.190;2023-05-02T14:05:00;21.20;;;14.73;;
13173;SDS011;6652;48.802;9.190;2023-05-02T14:07:28;21.10;;;14.18;;
13173;SDS011;6652;48.802;9.190;2023-05-02T14:09:55;27.70;;;17.08;;
13173;SDS011;6652;48.802;9.190;2023-05-02T14:12:22;21.60;;;15.73;;
13173;SDS011;6652;48.802;9.190;2023-05-02T14:14:49;19.58;;;15.57;;
13173;SDS011;6652;48.802;9.190;2023-05-02T14:19:43;18.63;;;12.15;;
13173;SDS011;6652;48.802;9.190;2023-05-02T14:22:10;15.50;;;9.90;;
13173;SDS011;6652;48.802;9.190;2023-05-02T14:24:38;12.93;;;10.10;;
13173;SDS011;6652;48.802;9.190;2023-05-02T14:27:05;15.68;;;11.27;;
13173;SDS011;6652;48.802;9.190;2023-05-02T14:29:37;15.82;;;10.90;;
13173;SDS011;6652;48.802;9.190;2023-05-02T14:32:04;13.80;;;10.68;;
13173;SDS011;6652;48.802;9.190;2023-05-02T14:34:31;14.52;;;10.43;;
13173;SDS011;6652;48.802;9.190;2023-05-02T14:36:57;16.00;;;11.35;;
13173;SDS011;6652;48.802;9.190;2023-05-02T14:39:24;14.45;;;9.98;;
13173;SDS011;6652;48.802;9.190;2023-05-02T14:41:52;14.88;;;8.50;;
13173;SDS011;6652;48.802;9.190;2023-05-02T14:44:19;12.63;;;8.73;;
13173;SDS011;6652;48.802;9.190;2023-05-02T14:46:46;14.25;;;9.88;;
13173;SDS011;6652;48.802;9.190;2023-05-02T14:49:13;14.30;;;9.85;;
13173;SDS011;6652;48.802;9.190;2023-05-02T14:51:40;14.95;;;9.70;;
13173;SDS011;6652;48.802;9.190;2023-05-02T14:54:11;11.18;;;8.95;;
13173;SDS011;6652;48.802;9.190;2023-05-02T14:56:39;15.73;;;7.45;;
13173;SDS011;6652;48.802;9.190;2023-05-02T14:59:07;11.38;;;7.20;;
13173;SDS011;6652;48.802;9.190;2023-05-02T15:01:34;10.95;;;8.07;;
13173;SDS011;6652;48.802;9.190;2023-05-02T15:04:01;17.75;;;8.38;;
13173;SDS011;6652;48.802;9.190;2023-05-02T15:06:28;14.20;;;8.82;;
13173;SDS011;6652;48.802;9.190;2023-05-02T15:08:55;15.48;;;10.38;;
13173;SDS011;6652;48.802;9.190;2023-05-02T15:11:22;13.88;;;9.45;;
13173;SDS011;6652;48.802;9.190;2023-05-02T15:13:49;11.40;;;8.70;;
13173;SDS011;6652;48.802;9.190;2023-05-02T15:16:17;12.55;;;8.48;;
13173;SDS011;6652;48.802;9.190;2023-05-02T15:18:44;21.30;;;8.82;;